createdAt,value
2022-08-28T00:01:15.888Z,100.00
2022-08-28T00:03:43.686Z,100.00
2022-08-28T00:06:12.807Z,100.00
2022-08-28T00:08:40.677Z,100.00
2022-08-28T00:11:08.390Z,100.00
2022-08-28T00:13:38.105Z,100.00
2022-08-28T00:16:06.226Z,100.00
2022-08-28T00:18:34.057Z,100.00
2022-08-28T00:21:02.340Z,100.00
2022-08-28T00:23:42.320Z,100.00
2022-08-28T00:26:11.354Z,100.00
2022-08-28T00:28:39.167Z,100.00
2022-08-28T00:31:07.155Z,100.00
2022-08-28T00:33:35.314Z,100.00
2022-08-28T00:36:05.060Z,100.00
2022-08-28T00:38:33.181Z,100.00
2022-08-28T00:41:03.886Z,100.00
2022-08-28T00:43:42.973Z,100.00
2022-08-28T00:46:14.983Z,100.00
2022-08-28T00:48:43.264Z,100.00
2022-08-28T00:51:30.271Z,100.00
2022-08-28T00:53:59.368Z,100.00
2022-08-28T00:56:29.366Z,100.00
2022-08-28T00:58:58.614Z,100.00
2022-08-28T01:01:26.457Z,100.00
2022-08-28T01:03:54.431Z,100.00
2022-08-28T01:06:22.311Z,100.00
2022-08-28T01:08:50.623Z,100.00
2022-08-28T01:11:19.742Z,100.00
2022-08-28T01:13:48.695Z,100.00
2022-08-28T01:16:18.057Z,100.00
2022-08-28T01:18:46.549Z,100.00
2022-08-28T01:21:23.891Z,100.00
2022-08-28T01:23:53.751Z,100.00
2022-08-28T01:26:22.092Z,100.00
2022-08-28T01:28:52.220Z,100.00
2022-08-28T01:31:21.791Z,100.00
2022-08-28T01:33:49.885Z,100.00
2022-08-28T01:36:18.018Z,100.00
2022-08-28T01:38:49.152Z,100.00
2022-08-28T01:41:17.095Z,100.00
2022-08-28T01:43:44.932Z,100.00
2022-08-28T01:46:12.896Z,100.00
2022-08-28T01:48:42.852Z,100.00
2022-08-28T01:51:11.548Z,100.00
2022-08-28T01:53:39.630Z,100.00
2022-08-28T01:56:09.907Z,100.00
2022-08-28T01:58:38.705Z,100.00
2022-08-28T02:01:11.135Z,100.00
2022-08-28T02:03:39.600Z,100.00
2022-08-28T02:06:07.615Z,100.00
2022-08-28T02:08:36.865Z,100.00
2022-08-28T02:11:06.494Z,100.00
2022-08-28T02:13:38.491Z,100.00
2022-08-28T02:16:08.959Z,100.00
2022-08-28T02:18:38.239Z,100.00
2022-08-28T02:21:07.209Z,100.00
2022-08-28T02:23:36.376Z,100.00
2022-08-28T02:26:04.175Z,100.00
2022-08-28T02:28:34.247Z,100.00
2022-08-28T02:31:02.662Z,100.00
2022-08-28T02:33:30.464Z,100.00
2022-08-28T02:35:58.248Z,100.00
2022-08-28T02:38:26.954Z,100.00
2022-08-28T02:40:54.682Z,100.00
2022-08-28T02:43:22.699Z,100.00
2022-08-28T02:45:50.548Z,100.00
2022-08-28T02:48:18.546Z,100.00
2022-08-28T02:50:47.289Z,100.00
2022-08-28T02:53:15.272Z,100.00
2022-08-28T02:55:43.153Z,100.00
2022-08-28T02:58:11.081Z,100.00
2022-08-28T03:00:39.053Z,100.00
2022-08-28T03:03:06.886Z,100.00
2022-08-28T03:05:34.749Z,100.00
2022-08-28T03:08:02.870Z,100.00
2022-08-28T03:10:30.576Z,100.00
2022-08-28T03:12:58.367Z,100.00
2022-08-28T03:15:26.291Z,100.00
2022-08-28T03:17:54.218Z,100.00
2022-08-28T03:20:22.194Z,100.00
2022-08-28T03:23:08.613Z,100.00
2022-08-28T03:25:36.585Z,100.00
2022-08-28T03:28:04.452Z,100.00
2022-08-28T03:30:32.348Z,100.00
2022-08-28T03:33:01.281Z,100.00
2022-08-28T03:35:29.149Z,100.00
2022-08-28T03:37:56.906Z,100.00
2022-08-28T03:40:24.772Z,100.00
2022-08-28T03:42:53.544Z,100.00
2022-08-28T03:45:22.240Z,100.00
2022-08-28T03:47:50.864Z,100.00
2022-08-28T03:50:19.795Z,100.00
2022-08-28T03:52:47.755Z,100.00
2022-08-28T03:55:16.869Z,100.00
2022-08-28T03:57:45.963Z,100.00
2022-08-28T04:00:14.302Z,100.00
2022-08-28T04:02:42.875Z,100.00
2022-08-28T04:05:11.284Z,100.00
2022-08-28T04:07:40.219Z,100.00
2022-08-28T04:10:08.490Z,100.00
2022-08-28T04:12:37.158Z,100.00
2022-08-28T04:15:06.937Z,100.00
2022-08-28T04:17:37.489Z,100.00
2022-08-28T04:20:06.481Z,100.00
2022-08-28T04:22:34.535Z,100.00
2022-08-28T04:25:02.479Z,100.00
2022-08-28T04:27:30.293Z,100.00
2022-08-28T04:29:58.169Z,100.00
2022-08-28T04:32:25.951Z,100.00
2022-08-28T04:34:54.103Z,100.00
2022-08-28T04:37:22.823Z,100.00
2022-08-28T04:39:55.798Z,100.00
2022-08-28T04:42:23.664Z,100.00
2022-08-28T04:44:55.562Z,100.00
2022-08-28T04:47:23.922Z,100.00
2022-08-28T04:49:51.741Z,100.00
2022-08-28T04:52:19.608Z,100.00
2022-08-28T04:54:47.416Z,100.00
2022-08-28T04:57:15.445Z,100.00
2022-08-28T04:59:45.214Z,100.00
2022-08-28T05:02:13.126Z,100.00
2022-08-28T05:04:40.944Z,100.00
2022-08-28T05:07:08.783Z,100.00
2022-08-28T05:09:36.646Z,100.00
2022-08-28T05:12:05.338Z,100.00
2022-08-28T05:14:33.175Z,100.00
2022-08-28T05:17:00.977Z,100.00
2022-08-28T05:19:28.720Z,100.00
2022-08-28T05:21:56.748Z,100.00
2022-08-28T05:24:24.533Z,100.00
2022-08-28T05:26:52.417Z,100.00
2022-08-28T05:29:20.295Z,100.00
2022-08-28T05:31:48.558Z,100.00
2022-08-28T05:34:16.871Z,100.00
2022-08-28T05:36:44.746Z,100.00
2022-08-28T05:39:13.089Z,100.00
2022-08-28T05:41:42.420Z,100.00
2022-08-28T05:44:11.779Z,100.00
2022-08-28T05:46:41.695Z,100.00
2022-08-28T05:49:10.428Z,100.00
2022-08-28T05:51:40.217Z,100.00
2022-08-28T05:54:08.772Z,100.00
2022-08-28T05:56:38.823Z,100.00
2022-08-28T05:59:07.557Z,100.00
2022-08-28T06:01:39.918Z,100.00
2022-08-28T06:04:10.391Z,100.00
2022-08-28T06:06:39.883Z,100.00
2022-08-28T06:09:11.411Z,100.00
2022-08-28T06:11:43.339Z,100.00
2022-08-28T06:14:16.187Z,100.00
2022-08-28T06:16:46.560Z,100.00
2022-08-28T06:19:14.769Z,100.00
2022-08-28T06:21:42.747Z,100.00
2022-08-28T06:24:11.603Z,100.00
2022-08-28T06:26:41.765Z,100.00
2022-08-28T06:29:11.525Z,100.00
2022-08-28T06:31:40.249Z,100.00
2022-08-28T06:34:10.282Z,100.00
2022-08-28T06:36:42.071Z,100.00
2022-08-28T06:39:11.038Z,100.00
2022-08-28T06:41:43.101Z,100.00
2022-08-28T06:44:12.607Z,100.00
2022-08-28T06:46:41.192Z,100.00
2022-08-28T06:49:09.173Z,100.00
2022-08-28T06:51:36.976Z,100.00
2022-08-28T06:54:06.235Z,100.00
2022-08-28T06:56:34.143Z,100.00
2022-08-28T06:59:02.166Z,100.00
2022-08-28T07:01:33.232Z,100.00
2022-08-28T07:04:04.202Z,100.00
2022-08-28T07:06:34.420Z,100.00
2022-08-28T07:09:03.485Z,100.00
2022-08-28T07:11:32.480Z,100.00
2022-08-28T07:14:01.187Z,100.00
2022-08-28T07:16:31.170Z,100.00
2022-08-28T07:18:59.840Z,100.00
2022-08-28T07:21:27.783Z,100.00
2022-08-28T07:23:55.820Z,100.00
2022-08-28T07:26:26.171Z,100.00
2022-08-28T07:28:59.453Z,100.00
2022-08-28T07:31:43.209Z,100.00
2022-08-28T07:34:12.830Z,100.00
2022-08-28T07:36:41.302Z,100.00
2022-08-28T07:39:09.963Z,100.00
2022-08-28T07:41:40.705Z,100.00
2022-08-28T07:44:28.411Z,100.00
2022-08-28T07:46:57.513Z,100.00
2022-08-28T07:49:26.061Z,100.00
2022-08-28T07:51:54.628Z,100.00
2022-08-28T07:54:23.171Z,100.00
2022-08-28T07:56:51.751Z,100.00
2022-08-28T07:59:21.029Z,100.00
2022-08-28T08:01:51.541Z,100.00
2022-08-28T08:04:21.106Z,100.00
2022-08-28T08:06:53.246Z,100.00
2022-08-28T08:09:23.858Z,100.00
2022-08-28T08:11:51.715Z,100.00
2022-08-28T08:14:19.695Z,100.00
2022-08-28T08:16:48.194Z,100.00
2022-08-28T08:19:16.389Z,100.00
2022-08-28T08:21:45.469Z,100.00
2022-08-28T08:24:19.414Z,100.00
2022-08-28T08:26:58.897Z,100.00
2022-08-28T08:29:33.529Z,100.00
2022-08-28T08:32:06.555Z,100.00
2022-08-28T08:34:38.741Z,100.00
2022-08-28T08:37:07.112Z,100.00
2022-08-28T08:39:35.983Z,100.00
2022-08-28T08:42:05.481Z,100.00
2022-08-28T08:44:41.641Z,100.00
2022-08-28T08:47:15.756Z,100.00
2022-08-28T08:49:55.766Z,100.00
2022-08-28T08:52:23.972Z,100.00
2022-08-28T08:55:10.699Z,100.00
2022-08-28T08:57:46.177Z,100.00
2022-08-28T09:00:18.173Z,100.00
2022-08-28T09:02:52.184Z,100.00
2022-08-28T09:05:22.758Z,100.00
2022-08-28T09:08:02.859Z,100.00
2022-08-28T09:10:39.745Z,100.00
2022-08-28T09:13:10.741Z,100.00
2022-08-28T09:15:47.551Z,100.00
2022-08-28T09:18:18.770Z,100.00
2022-08-28T09:20:51.187Z,100.00
2022-08-28T09:23:19.156Z,100.00
2022-08-28T09:25:47.944Z,99.92
2022-08-28T09:28:29.461Z,90.59
2022-08-28T09:30:57.598Z,89.93
2022-08-28T09:33:33.965Z,99.26
2022-08-28T09:36:21.276Z,95.52
2022-08-28T09:39:09.465Z,91.37
2022-08-28T09:41:58.065Z,87.50
2022-08-28T09:44:26.045Z,79.42
2022-08-28T09:46:54.343Z,81.83
2022-08-28T09:49:24.234Z,89.70
2022-08-28T09:51:52.204Z,88.61
2022-08-28T09:54:47.054Z,81.74
2022-08-28T09:57:14.864Z,79.11
2022-08-28T09:59:42.721Z,79.59
2022-08-28T10:02:27.777Z,78.09
2022-08-28T10:04:55.707Z,77.50
2022-08-28T10:07:38.987Z,79.60
2022-08-28T10:10:19.166Z,75.06
2022-08-28T10:12:47.749Z,73.53
2022-08-28T10:15:34.697Z,71.45
2022-08-28T10:18:15.240Z,70.32
2022-08-28T10:20:47.061Z,64.95
2022-08-28T10:23:21.529Z,69.83
2022-08-28T10:25:57.945Z,69.38
2022-08-28T10:28:31.958Z,65.75
2022-08-28T10:31:09.660Z,66.22
2022-08-28T10:33:52.565Z,66.63
2022-08-28T10:36:33.434Z,69.78
2022-08-28T10:39:05.821Z,61.72
2022-08-28T10:41:49.013Z,60.12
2022-08-28T10:44:33.222Z,60.85
2022-08-28T10:47:03.767Z,63.54
2022-08-28T10:49:31.618Z,65.50
2022-08-28T10:52:05.476Z,61.65
2022-08-28T10:54:44.087Z,60.46
2022-08-28T10:57:15.253Z,59.61
2022-08-28T10:59:45.010Z,63.20
2022-08-28T11:02:14.842Z,60.23
2022-08-28T11:04:43.356Z,58.58
2022-08-28T11:07:13.796Z,59.73
2022-08-28T11:09:47.855Z,61.40
2022-08-28T11:12:19.925Z,64.00
2022-08-28T11:14:49.654Z,60.45
2022-08-28T11:17:25.531Z,61.59
2022-08-28T11:20:03.703Z,63.76
2022-08-28T11:22:53.302Z,65.06
2022-08-28T11:25:41.887Z,66.72
2022-08-28T11:28:15.396Z,62.56
2022-08-28T11:30:46.450Z,64.27
2022-08-28T11:33:33.120Z,58.52
2022-08-28T11:36:01.111Z,59.40
2022-08-28T11:38:41.159Z,60.24
2022-08-28T11:41:24.367Z,62.10
2022-08-28T11:44:14.794Z,62.09
2022-08-28T11:46:44.710Z,60.42
2022-08-28T11:49:31.703Z,60.93
2022-08-28T11:52:02.717Z,60.28
2022-08-28T11:54:34.083Z,60.75
2022-08-28T11:57:14.683Z,61.49
2022-08-28T11:59:51.754Z,62.52
2022-08-28T12:02:31.920Z,61.27
2022-08-28T12:04:59.986Z,59.88
2022-08-28T12:07:34.417Z,58.73
2022-08-28T12:10:05.195Z,59.28
2022-08-28T12:12:39.206Z,60.50
2022-08-28T12:15:07.959Z,60.54
2022-08-28T12:17:44.680Z,61.43
2022-08-28T12:20:18.498Z,60.88
2022-08-28T12:23:00.388Z,62.06
2022-08-28T12:25:29.182Z,60.59
2022-08-28T12:27:58.788Z,60.65
2022-08-28T12:30:28.723Z,60.76
2022-08-28T12:33:07.631Z,59.73
2022-08-28T12:35:35.893Z,57.16
2022-08-28T12:38:06.185Z,56.24
2022-08-28T12:40:37.278Z,57.96
2022-08-28T12:43:09.515Z,57.59
2022-08-28T12:45:40.809Z,57.61
2022-08-28T12:48:21.200Z,58.22
2022-08-28T12:50:56.444Z,58.11
2022-08-28T12:53:27.170Z,56.46
2022-08-28T12:55:57.141Z,59.94
2022-08-28T12:58:30.008Z,60.47
2022-08-28T13:01:06.548Z,58.31
2022-08-28T13:03:35.111Z,57.12
2022-08-28T13:06:05.677Z,52.70
2022-08-28T13:08:34.411Z,50.77
2022-08-28T13:11:02.614Z,50.11
2022-08-28T13:13:33.823Z,50.96
2022-08-28T13:16:01.868Z,52.36
2022-08-28T13:18:50.464Z,59.75
2022-08-28T13:21:32.831Z,70.14
2022-08-28T13:24:20.610Z,78.36
2022-08-28T13:26:50.077Z,82.93
2022-08-28T13:29:20.046Z,86.38
2022-08-28T13:31:59.820Z,88.62
2022-08-28T13:34:29.604Z,89.77
2022-08-28T13:37:14.643Z,93.06
2022-08-28T13:39:47.955Z,91.99
2022-08-28T13:42:17.058Z,92.98
2022-08-28T13:44:57.010Z,92.29
2022-08-28T13:47:25.491Z,91.35
2022-08-28T13:49:53.366Z,92.05
2022-08-28T13:52:21.156Z,90.60
2022-08-28T13:54:49.111Z,89.82
2022-08-28T13:57:17.474Z,89.25
2022-08-28T13:59:45.295Z,89.39
2022-08-28T14:02:33.661Z,89.87
2022-08-28T14:05:01.662Z,90.54
2022-08-28T14:07:29.607Z,89.46
2022-08-28T14:09:57.757Z,91.33
2022-08-28T14:12:33.028Z,91.07
2022-08-28T14:15:02.212Z,90.92
2022-08-28T14:17:30.196Z,89.50
2022-08-28T14:20:00.365Z,88.49
2022-08-28T14:22:28.579Z,86.54
2022-08-28T14:24:56.512Z,86.14
2022-08-28T14:27:24.382Z,85.08
2022-08-28T14:29:53.404Z,82.19
2022-08-28T14:32:21.216Z,79.93
2022-08-28T14:34:50.771Z,78.74
2022-08-28T14:37:19.444Z,78.26
2022-08-28T14:39:48.053Z,78.39
2022-08-28T14:42:16.095Z,78.68
2022-08-28T14:44:43.926Z,77.84
2022-08-28T14:47:11.795Z,78.62
2022-08-28T14:49:39.761Z,78.11
2022-08-28T14:52:07.704Z,76.39
2022-08-28T14:54:35.682Z,76.32
2022-08-28T14:57:03.884Z,76.13
2022-08-28T14:59:33.135Z,75.74
2022-08-28T15:02:02.259Z,78.08
2022-08-28T15:04:38.216Z,77.33
2022-08-28T15:07:08.487Z,79.92
2022-08-28T15:09:40.658Z,81.77
2022-08-28T15:12:08.633Z,81.83
2022-08-28T15:14:36.733Z,82.58
2022-08-28T15:17:05.509Z,81.94
2022-08-28T15:19:33.555Z,79.68
2022-08-28T15:22:02.229Z,81.09
2022-08-28T15:24:31.524Z,81.55
2022-08-28T15:26:59.917Z,82.53
2022-08-28T15:29:30.128Z,83.77
2022-08-28T15:31:59.009Z,84.74
2022-08-28T15:34:28.511Z,85.79
2022-08-28T15:36:57.409Z,87.09
2022-08-28T15:39:45.538Z,86.69
2022-08-28T15:42:13.626Z,87.51
2022-08-28T15:44:42.111Z,87.94
2022-08-28T15:47:10.252Z,89.42
2022-08-28T15:49:46.694Z,90.63
2022-08-28T15:52:18.701Z,90.79
2022-08-28T15:54:47.524Z,90.85
2022-08-28T15:57:15.988Z,92.11
2022-08-28T15:59:49.871Z,92.76
2022-08-28T16:02:20.615Z,93.43
2022-08-28T16:04:49.095Z,94.04
2022-08-28T16:07:17.704Z,95.94
2022-08-28T16:09:45.665Z,97.05
2022-08-28T16:12:14.036Z,98.31
2022-08-28T16:14:42.267Z,99.93
2022-08-28T16:17:11.476Z,100.00
2022-08-28T16:19:40.511Z,100.00
2022-08-28T16:22:09.739Z,100.00
2022-08-28T16:24:37.842Z,100.00
2022-08-28T16:27:08.735Z,100.00
2022-08-28T16:29:39.931Z,100.00
2022-08-28T16:32:08.005Z,100.00
2022-08-28T16:34:36.932Z,100.00
2022-08-28T16:37:05.899Z,100.00
2022-08-28T16:39:36.241Z,100.00
2022-08-28T16:42:04.718Z,100.00
2022-08-28T16:44:32.802Z,100.00
2022-08-28T16:47:00.973Z,100.00
2022-08-28T16:49:28.925Z,100.00
2022-08-28T16:51:56.812Z,100.00
2022-08-28T16:54:24.736Z,100.00
2022-08-28T16:56:52.951Z,100.00
2022-08-28T16:59:23.360Z,100.00
2022-08-28T17:01:52.920Z,100.00
2022-08-28T17:04:21.991Z,100.00
2022-08-28T17:06:50.270Z,100.00
2022-08-28T17:09:20.909Z,100.00
2022-08-28T17:11:52.126Z,100.00
2022-08-28T17:14:21.460Z,100.00
2022-08-28T17:16:49.617Z,100.00
2022-08-28T17:19:17.979Z,100.00
2022-08-28T17:22:04.576Z,100.00
2022-08-28T17:24:32.594Z,100.00
2022-08-28T17:27:05.138Z,100.00
2022-08-28T17:29:34.721Z,100.00
2022-08-28T17:32:05.361Z,100.00
2022-08-28T17:34:33.387Z,100.00
2022-08-28T17:37:01.753Z,100.00
2022-08-28T17:39:29.857Z,100.00
2022-08-28T17:41:57.860Z,100.00
2022-08-28T17:44:26.552Z,100.00
2022-08-28T17:46:54.584Z,100.00
2022-08-28T17:49:23.078Z,100.00
2022-08-28T17:51:51.310Z,100.00
2022-08-28T17:54:21.706Z,100.00
2022-08-28T17:56:50.378Z,100.00
2022-08-28T17:59:18.661Z,100.00
2022-08-28T18:01:47.362Z,100.00
2022-08-28T18:04:19.008Z,100.00
2022-08-28T18:06:54.631Z,100.00
2022-08-28T18:09:23.776Z,100.00
2022-08-28T18:11:53.594Z,100.00
2022-08-28T18:14:21.586Z,100.00
2022-08-28T18:16:50.514Z,100.00
2022-08-28T18:19:18.428Z,100.00
2022-08-28T18:21:47.122Z,100.00
2022-08-28T18:24:15.183Z,100.00
2022-08-28T18:26:44.008Z,100.00
2022-08-28T18:29:13.596Z,100.00
2022-08-28T18:31:42.071Z,100.00
2022-08-28T18:34:10.477Z,100.00
2022-08-28T18:36:43.220Z,100.00
2022-08-28T18:39:11.216Z,100.00
2022-08-28T18:41:43.714Z,100.00
2022-08-28T18:44:15.493Z,100.00
2022-08-28T18:46:44.224Z,100.00
2022-08-28T18:49:12.655Z,100.00
2022-08-28T18:51:41.998Z,100.00
2022-08-28T18:54:10.700Z,100.00
2022-08-28T18:56:40.209Z,100.00
2022-08-28T18:59:09.663Z,100.00
2022-08-28T19:01:38.521Z,100.00
2022-08-28T19:04:07.433Z,100.00
2022-08-28T19:06:35.748Z,100.00
2022-08-28T19:09:05.789Z,100.00
2022-08-28T19:11:35.980Z,100.00
2022-08-28T19:14:04.231Z,100.00
2022-08-28T19:16:32.401Z,100.00
2022-08-28T19:19:01.209Z,100.00
2022-08-28T19:21:29.379Z,100.00
2022-08-28T19:23:57.742Z,100.00
2022-08-28T19:26:26.887Z,100.00
2022-08-28T19:28:54.957Z,100.00
2022-08-28T19:31:23.770Z,100.00
2022-08-28T19:33:51.748Z,100.00
2022-08-28T19:36:19.985Z,100.00
2022-08-28T19:38:47.934Z,100.00
2022-08-28T19:41:15.826Z,100.00
2022-08-28T19:43:44.668Z,100.00
2022-08-28T19:46:18.459Z,100.00
2022-08-28T19:48:49.562Z,100.00
2022-08-28T19:51:23.157Z,100.00
2022-08-28T19:53:57.210Z,100.00
2022-08-28T19:56:28.376Z,100.00
2022-08-28T19:58:58.487Z,100.00
2022-08-28T20:01:29.631Z,100.00
2022-08-28T20:03:58.926Z,100.00
2022-08-28T20:06:27.163Z,100.00
2022-08-28T20:08:55.292Z,100.00
2022-08-28T20:11:30.208Z,100.00
2022-08-28T20:14:04.264Z,100.00
2022-08-28T20:16:34.540Z,100.00
2022-08-28T20:19:03.968Z,100.00
2022-08-28T20:21:37.135Z,100.00
2022-08-28T20:24:08.164Z,100.00
2022-08-28T20:26:36.893Z,100.00
2022-08-28T20:29:06.081Z,100.00
2022-08-28T20:31:34.200Z,100.00
2022-08-28T20:34:02.025Z,100.00
2022-08-28T20:36:29.868Z,100.00
2022-08-28T20:38:57.676Z,100.00
2022-08-28T20:41:25.713Z,100.00
2022-08-28T20:43:53.624Z,100.00
2022-08-28T20:46:22.135Z,100.00
2022-08-28T20:48:50.010Z,100.00
2022-08-28T20:51:37.907Z,100.00
2022-08-28T20:54:05.824Z,100.00
2022-08-28T20:56:33.985Z,100.00
2022-08-28T20:59:01.938Z,100.00
2022-08-28T21:01:29.803Z,100.00
2022-08-28T21:03:57.914Z,100.00
2022-08-28T21:06:26.236Z,100.00
2022-08-28T21:08:56.555Z,100.00
2022-08-28T21:11:25.070Z,100.00
2022-08-28T21:13:53.228Z,100.00
2022-08-28T21:16:21.889Z,100.00
2022-08-28T21:19:12.153Z,100.00
2022-08-28T21:21:38.134Z,100.00
2022-08-28T21:24:07.199Z,100.00
2022-08-28T21:26:37.734Z,100.00
2022-08-28T21:29:06.122Z,100.00
2022-08-28T21:31:34.542Z,100.00
2022-08-28T21:34:02.462Z,100.00
2022-08-28T21:36:30.344Z,100.00
2022-08-28T21:38:58.577Z,100.00
2022-08-28T21:41:26.458Z,100.00
2022-08-28T21:43:55.771Z,100.00
2022-08-28T21:46:23.744Z,100.00
2022-08-28T21:48:53.588Z,100.00
2022-08-28T21:51:21.883Z,100.00
2022-08-28T21:53:49.747Z,100.00
2022-08-28T21:56:25.035Z,100.00
2022-08-28T21:58:54.034Z,100.00
2022-08-28T22:01:24.608Z,100.00
2022-08-28T22:03:53.297Z,100.00
2022-08-28T22:06:22.822Z,100.00
2022-08-28T22:08:51.005Z,100.00
2022-08-28T22:11:20.091Z,100.00
2022-08-28T22:13:54.484Z,100.00
2022-08-28T22:16:22.844Z,100.00
2022-08-28T22:18:51.298Z,100.00
2022-08-28T22:21:39.726Z,100.00
2022-08-28T22:24:09.002Z,100.00
2022-08-28T22:26:36.949Z,100.00
2022-08-28T22:29:05.991Z,100.00
2022-08-28T22:31:35.202Z,100.00
2022-08-28T22:34:06.033Z,100.00
2022-08-28T22:36:34.199Z,100.00
2022-08-28T22:39:02.144Z,100.00
2022-08-28T22:41:30.574Z,100.00
2022-08-28T22:43:58.954Z,100.00
2022-08-28T22:46:28.057Z,100.00
2022-08-28T22:48:56.755Z,100.00
2022-08-28T22:51:24.546Z,100.00
2022-08-28T22:53:52.591Z,100.00
2022-08-28T22:56:20.487Z,100.00
2022-08-28T22:58:48.241Z,100.00
2022-08-28T23:01:18.481Z,100.00
2022-08-28T23:03:46.950Z,100.00
2022-08-28T23:06:14.835Z,100.00
2022-08-28T23:08:43.073Z,100.00
2022-08-28T23:11:11.036Z,100.00
2022-08-28T23:13:38.913Z,100.00
2022-08-28T23:16:07.574Z,100.00
2022-08-28T23:19:06.766Z,100.00
2022-08-28T23:21:26.271Z,100.00
2022-08-28T23:23:55.161Z,100.00
2022-08-28T23:26:23.838Z,100.00
2022-08-28T23:28:52.210Z,100.00
2022-08-28T23:31:20.225Z,100.00
2022-08-28T23:33:49.652Z,100.00
2022-08-28T23:36:18.093Z,100.00
2022-08-28T23:38:47.738Z,100.00
2022-08-28T23:41:15.596Z,100.00
2022-08-28T23:43:43.398Z,100.00
2022-08-28T23:46:15.069Z,100.00
2022-08-28T23:48:43.875Z,100.00
2022-08-28T23:51:14.464Z,100.00
2022-08-28T23:53:43.113Z,100.00
2022-08-28T23:56:10.946Z,100.00
2022-08-28T23:58:43.123Z,100.00
